sensor_id;sensor_type;location;lat;lon;timestamp;pressure;altitude;pressure_sealevel;temperature;humidity
71974;BME280;59840;52.122;5.404;2023-12-20T00:01:03;101701.25;;;6.24;100.00
71974;BME280;59840;52.122;5.404;2023-12-20T00:03:29;101693.59;;;6.23;100.00
71974;BME280;59840;52.122;5.404;2023-12-20T00:06:08;101690.56;;;6.26;100.00
71974;BME280;59840;52.122;5.404;2023-12-20T00:08:34;101691.78;;;6.23;100.00
71974;BME280;59840;52.122;5.404;2023-12-20T00:11:01;101685.13;;;6.21;100.00
71974;BME280;59840;52.122;5.404;2023-12-20T00:13:27;101678.66;;;6.17;100.00
71974;BME280;59840;52.122;5.404;2023-12-20T00:15:54;101679.03;;;6.14;100.00
71974;BME280;59840;52.122;5.404;2023-12-20T00:18:21;101676.81;;;6.11;100.00
71974;BME280;59840;52.122;5.404;2023-12-20T00:20:47;101679.00;;;6.07;100.00
71974;BME280;59840;52.122;5.404;2023-12-20T00:23:14;101680.81;;;6.07;100.00
71974;BME280;59840;52.122;5.404;2023-12-20T00:25:40;101685.44;;;6.04;100.00
71974;BME280;59840;52.122;5.404;2023-12-20T00:28:07;101675.97;;;6.03;100.00
71974;BME280;59840;52.122;5.404;2023-12-20T00:30:34;101676.34;;;6.00;100.00
71974;BME280;59840;52.122;5.404;2023-12-20T00:33:00;101674.31;;;5.96;100.00
71974;BME280;59840;52.122;5.404;2023-12-20T00:35:27;101680.13;;;5.91;100.00
71974;BME280;59840;52.122;5.404;2023-12-20T00:37:54;101677.25;;;5.86;100.00
71974;BME280;59840;52.122;5.404;2023-12-20T00:40:20;101686.50;;;5.82;100.00
71974;BME280;59840;52.122;5.404;2023-12-20T00:42:47;101680.88;;;5.85;100.00
71974;BME280;59840;52.122;5.404;2023-12-20T00:45:14;101676.81;;;5.83;100.00
71974;BME280;59840;52.122;5.404;2023-12-20T00:47:41;101676.03;;;5.82;100.00
71974;BME280;59840;52.122;5.404;2023-12-20T00:50:09;101672.34;;;5.77;100.00
71974;BME280;59840;52.122;5.404;2023-12-20T00:52:35;101676.16;;;5.74;100.00
71974;BME280;59840;52.122;5.404;2023-12-20T00:55:03;101671.94;;;5.73;100.00
71974;BME280;59840;52.122;5.404;2023-12-20T00:57:30;101671.69;;;5.68;100.00
71974;BME280;59840;52.122;5.404;2023-12-20T00:59:58;101688.78;;;5.64;100.00
71974;BME280;59840;52.122;5.404;2023-12-20T01:02:24;101684.28;;;5.58;100.00
71974;BME280;59840;52.122;5.404;2023-12-20T01:04:51;101676.88;;;5.61;100.00
71974;BME280;59840;52.122;5.404;2023-12-20T01:07:18;101679.09;;;5.64;100.00
71974;BME280;59840;52.122;5.404;2023-12-20T01:09:45;101671.06;;;5.66;100.00
71974;BME280;59840;52.122;5.404;2023-12-20T01:12:12;101665.22;;;5.64;100.00
71974;BME280;59840;52.122;5.404;2023-12-20T01:14:38;101667.44;;;5.67;100.00
71974;BME280;59840;52.122;5.404;2023-12-20T01:17:06;101665.63;;;5.67;100.00
71974;BME280;59840;52.122;5.404;2023-12-20T01:19:33;101654.72;;;5.64;100.00
71974;BME280;59840;52.122;5.404;2023-12-20T01:21:59;101652.31;;;5.62;100.00
71974;BME280;59840;52.122;5.404;2023-12-20T01:24:26;101662.97;;;5.61;100.00
71974;BME280;59840;52.122;5.404;2023-12-20T01:26:52;101659.72;;;5.59;100.00
71974;BME280;59840;52.122;5.404;2023-12-20T01:29:19;101678.44;;;5.56;100.00
71974;BME280;59840;52.122;5.404;2023-12-20T01:31:46;101687.09;;;5.56;100.00
71974;BME280;59840;52.122;5.404;2023-12-20T01:34:13;101684.88;;;5.53;100.00
71974;BME280;59840;52.122;5.404;2023-12-20T01:36:39;101684.47;;;5.56;100.00
71974;BME280;59840;52.122;5.404;2023-12-20T01:39:06;101685.06;;;5.52;100.00
71974;BME280;59840;52.122;5.404;2023-12-20T01:41:50;101689.91;;;5.55;100.00
71974;BME280;59840;52.122;5.404;2023-12-20T01:44:17;101683.28;;;5.59;100.00
71974;BME280;59840;52.122;5.404;2023-12-20T01:46:43;101676.69;;;5.63;100.00
71974;BME280;59840;52.122;5.404;2023-12-20T01:49:10;101668.63;;;5.64;100.00
71974;BME280;59840;52.122;5.404;2023-12-20T01:51:37;101663.59;;;5.63;100.00
71974;BME280;59840;52.122;5.404;2023-12-20T01:54:04;101663.03;;;5.67;100.00
71974;BME280;59840;52.122;5.404;2023-12-20T01:56:31;101672.94;;;5.72;100.00
71974;BME280;59840;52.122;5.404;2023-12-20T01:58:58;101669.31;;;5.73;100.00
71974;BME280;59840;52.122;5.404;2023-12-20T02:01:27;101672.72;;;5.73;100.00
71974;BME280;59840;52.122;5.404;2023-12-20T02:03:55;101676.34;;;5.72;100.00
71974;BME280;59840;52.122;5.404;2023-12-20T02:06:23;101668.69;;;5.71;100.00
71974;BME280;59840;52.122;5.404;2023-12-20T02:08:50;101666.06;;;5.71;100.00
71974;BME280;59840;52.122;5.404;2023-12-20T02:11:17;101668.69;;;5.71;100.00
71974;BME280;59840;52.122;5.404;2023-12-20T02:13:44;101670.13;;;5.73;100.00
71974;BME280;59840;52.122;5.404;2023-12-20T02:16:10;101670.72;;;5.76;100.00
71974;BME280;59840;52.122;5.404;2023-12-20T02:18:37;101661.06;;;5.76;100.00
71974;BME280;59840;52.122;5.404;2023-12-20T02:21:05;101666.53;;;5.81;100.00
71974;BME280;59840;52.122;5.404;2023-12-20T02:23:32;101657.50;;;5.84;100.00
71974;BME280;59840;52.122;5.404;2023-12-20T02:25:58;101655.69;;;5.84;100.00
71974;BME280;59840;52.122;5.404;2023-12-20T02:28:25;101661.53;;;5.86;100.00
71974;BME280;59840;52.122;5.404;2023-12-20T02:30:52;101662.34;;;5.87;100.00
71974;BME280;59840;52.122;5.404;2023-12-20T02:33:19;101661.97;;;5.90;100.00
71974;BME280;59840;52.122;5.404;2023-12-20T02:35:46;101655.72;;;5.91;100.00
71974;BME280;59840;52.122;5.404;2023-12-20T02:38:12;101653.91;;;5.91;100.00
71974;BME280;59840;52.122;5.404;2023-12-20T02:40:39;101656.53;;;5.91;100.00
71974;BME280;59840;52.122;5.404;2023-12-20T02:43:14;101656.53;;;5.91;100.00
71974;BME280;59840;52.122;5.404;2023-12-20T02:45:41;101651.91;;;5.93;100.00
71974;BME280;59840;52.122;5.404;2023-12-20T02:48:07;101647.50;;;5.94;100.00
71974;BME280;59840;52.122;5.404;2023-12-20T02:50:34;101642.88;;;5.96;100.00
71974;BME280;59840;52.122;5.404;2023-12-20T02:53:01;101643.88;;;5.95;100.00
71974;BME280;59840;52.122;5.404;2023-12-20T02:55:27;101643.06;;;5.94;100.00
71974;BME280;59840;52.122;5.404;2023-12-20T02:57:54;101635.59;;;5.91;100.00
71974;BME280;59840;52.122;5.404;2023-12-20T03:00:20;101637.59;;;5.89;100.00
71974;BME280;59840;52.122;5.404;2023-12-20T03:02:47;101629.50;;;5.84;100.00
71974;BME280;59840;52.122;5.404;2023-12-20T03:05:13;101630.31;;;5.85;100.00
71974;BME280;59840;52.122;5.404;2023-12-20T03:07:40;101629.72;;;5.89;100.00
71974;BME280;59840;52.122;5.404;2023-12-20T03:10:07;101626.72;;;5.92;100.00
71974;BME280;59840;52.122;5.404;2023-12-20T03:12:45;101632.78;;;5.93;100.00
71974;BME280;59840;52.122;5.404;2023-12-20T03:15:12;101632.59;;;5.94;100.00
71974;BME280;59840;52.122;5.404;2023-12-20T03:17:39;101624.16;;;5.99;100.00
71974;BME280;59840;52.122;5.404;2023-12-20T03:20:06;101629.19;;;6.00;100.00
71974;BME280;59840;52.122;5.404;2023-12-20T03:22:33;101625.94;;;5.98;100.00
71974;BME280;59840;52.122;5.404;2023-12-20T03:24:59;101621.28;;;5.94;100.00
71974;BME280;59840;52.122;5.404;2023-12-20T03:27:26;101616.25;;;5.92;100.00
71974;BME280;59840;52.122;5.404;2023-12-20T03:29:53;101615.25;;;5.93;100.00
71974;BME280;59840;52.122;5.404;2023-12-20T03:32:19;101604.16;;;5.91;100.00
71974;BME280;59840;52.122;5.404;2023-12-20T03:34:46;101605.78;;;5.92;100.00
71974;BME280;59840;52.122;5.404;2023-12-20T03:37:13;101619.47;;;5.94;100.00
71974;BME280;59840;52.122;5.404;2023-12-20T03:39:40;101611.25;;;5.97;100.00
71974;BME280;59840;52.122;5.404;2023-12-20T03:42:06;101622.94;;;6.01;100.00
71974;BME280;59840;52.122;5.404;2023-12-20T03:44:33;101614.91;;;6.03;100.00
71974;BME280;59840;52.122;5.404;2023-12-20T03:46:59;101612.69;;;6.07;100.00
71974;BME280;59840;52.122;5.404;2023-12-20T03:49:26;101623.41;;;6.12;100.00
71974;BME280;59840;52.122;5.404;2023-12-20T03:51:53;101618.34;;;6.10;100.00
71974;BME280;59840;52.122;5.404;2023-12-20T03:54:19;101617.13;;;6.06;100.00
71974;BME280;59840;52.122;5.404;2023-12-20T03:56:46;101614.47;;;5.99;100.00
71974;BME280;59840;52.122;5.404;2023-12-20T03:59:12;101608.44;;;5.99;100.00
71974;BME280;59840;52.122;5.404;2023-12-20T04:01:43;101611.25;;;5.97;100.00
71974;BME280;59840;52.122;5.404;2023-12-20T04:04:11;101607.63;;;5.98;100.00
71974;BME280;59840;52.122;5.404;2023-12-20T04:06:38;101616.09;;;6.00;100.00
71974;BME280;59840;52.122;5.404;2023-12-20T04:09:04;101616.31;;;6.05;100.00
71974;BME280;59840;52.122;5.404;2023-12-20T04:11:31;101618.16;;;6.12;100.00
71974;BME280;59840;52.122;5.404;2023-12-20T04:13:57;101611.34;;;6.17;100.00
71974;BME280;59840;52.122;5.404;2023-12-20T04:16:24;101611.34;;;6.24;100.00
71974;BME280;59840;52.122;5.404;2023-12-20T04:18:50;101602.09;;;6.28;100.00
71974;BME280;59840;52.122;5.404;2023-12-20T04:21:17;101592.41;;;6.28;100.00
71974;BME280;59840;52.122;5.404;2023-12-20T04:23:44;101596.22;;;6.26;100.00
71974;BME280;59840;52.122;5.404;2023-12-20T04:26:10;101599.84;;;6.25;100.00
71974;BME280;59840;52.122;5.404;2023-12-20T04:28:37;101598.25;;;6.30;100.00
71974;BME280;59840;52.122;5.404;2023-12-20T04:31:03;101598.06;;;6.32;100.00
71974;BME280;59840;52.122;5.404;2023-12-20T04:33:30;101601.53;;;6.39;100.00
71974;BME280;59840;52.122;5.404;2023-12-20T04:35:57;101598.13;;;6.45;100.00
71974;BME280;59840;52.122;5.404;2023-12-20T04:38:24;101605.59;;;6.48;100.00
71974;BME280;59840;52.122;5.404;2023-12-20T04:40:50;101612.25;;;6.51;100.00
71974;BME280;59840;52.122;5.404;2023-12-20T04:43:17;101599.75;;;6.53;100.00
71974;BME280;59840;52.122;5.404;2023-12-20T04:45:44;101595.72;;;6.50;100.00
71974;BME280;59840;52.122;5.404;2023-12-20T04:48:11;101609.44;;;6.52;100.00
71974;BME280;59840;52.122;5.404;2023-12-20T04:50:38;101594.91;;;6.56;100.00
71974;BME280;59840;52.122;5.404;2023-12-20T04:53:05;101596.09;;;6.60;100.00
71974;BME280;59840;52.122;5.404;2023-12-20T04:55:31;101588.84;;;6.62;100.00
71974;BME280;59840;52.122;5.404;2023-12-20T04:57:58;101590.69;;;6.68;100.00
71974;BME280;59840;52.122;5.404;2023-12-20T05:00:24;101586.03;;;6.70;100.00
71974;BME280;59840;52.122;5.404;2023-12-20T05:02:51;101587.25;;;6.75;100.00
71974;BME280;59840;52.122;5.404;2023-12-20T05:05:18;101570.53;;;6.76;100.00
71974;BME280;59840;52.122;5.404;2023-12-20T05:07:44;101578.38;;;6.76;100.00
71974;BME280;59840;52.122;5.404;2023-12-20T05:10:11;101580.81;;;6.77;100.00
71974;BME280;59840;52.122;5.404;2023-12-20T05:12:38;101590.50;;;6.77;100.00
71974;BME280;59840;52.122;5.404;2023-12-20T05:15:06;101590.09;;;6.80;100.00
71974;BME280;59840;52.122;5.404;2023-12-20T05:17:33;101584.03;;;6.79;100.00
71974;BME280;59840;52.122;5.404;2023-12-20T05:19:59;101582.22;;;6.80;100.00
71974;BME280;59840;52.122;5.404;2023-12-20T05:22:26;101590.72;;;6.82;100.00
71974;BME280;59840;52.122;5.404;2023-12-20T05:24:54;101586.06;;;6.84;100.00
71974;BME280;59840;52.122;5.404;2023-12-20T05:27:20;101585.06;;;6.85;100.00
71974;BME280;59840;52.122;5.404;2023-12-20T05:29:47;101586.06;;;6.84;100.00
71974;BME280;59840;52.122;5.404;2023-12-20T05:32:13;101592.94;;;6.85;100.00
71974;BME280;59840;52.122;5.404;2023-12-20T05:34:40;101592.94;;;6.85;100.00
71974;BME280;59840;52.122;5.404;2023-12-20T05:37:07;101597.56;;;6.83;100.00
71974;BME280;59840;52.122;5.404;2023-12-20T05:39:33;101584.06;;;6.86;100.00
71974;BME280;59840;52.122;5.404;2023-12-20T05:42:00;101589.72;;;6.89;100.00
71974;BME280;59840;52.122;5.404;2023-12-20T05:44:27;101583.66;;;6.89;100.00
71974;BME280;59840;52.122;5.404;2023-12-20T05:46:53;101594.97;;;6.89;100.00
71974;BME280;59840;52.122;5.404;2023-12-20T05:49:20;101588.91;;;6.89;100.00
71974;BME280;59840;52.122;5.404;2023-12-20T05:51:48;101580.03;;;6.90;100.00
71974;BME280;59840;52.122;5.404;2023-12-20T05:54:15;101595.38;;;6.93;100.00
71974;BME280;59840;52.122;5.404;2023-12-20T05:56:41;101591.31;;;6.90;100.00
71974;BME280;59840;52.122;5.404;2023-12-20T05:59:08;101581.63;;;6.91;100.00
71974;BME280;59840;52.122;5.404;2023-12-20T06:01:34;101587.50;;;6.93;100.00
71974;BME280;59840;52.122;5.404;2023-12-20T06:04:01;101584.88;;;6.93;100.00
71974;BME280;59840;52.122;5.404;2023-12-20T06:06:29;101576.78;;;6.94;100.00
71974;BME280;59840;52.122;5.404;2023-12-20T06:08:57;101582.25;;;6.93;100.00
71974;BME280;59840;52.122;5.404;2023-12-20T06:11:23;101588.50;;;6.92;100.00
71974;BME280;59840;52.122;5.404;2023-12-20T06:13:50;101588.06;;;6.95;100.00
71974;BME280;59840;52.122;5.404;2023-12-20T06:16:18;101585.03;;;6.98;100.00
71974;BME280;59840;52.122;5.404;2023-12-20T06:18:45;101577.16;;;6.98;100.00
71974;BME280;59840;52.122;5.404;2023-12-20T06:21:12;101579.41;;;7.01;100.00
71974;BME280;59840;52.122;5.404;2023-12-20T06:23:39;101582.03;;;7.01;100.00
71974;BME280;59840;52.122;5.404;2023-12-20T06:26:05;101584.66;;;7.01;100.00
71974;BME280;59840;52.122;5.404;2023-12-20T06:28:32;101578.19;;;7.03;100.00
71974;BME280;59840;52.122;5.404;2023-12-20T06:30:59;101579.59;;;7.06;100.00
71974;BME280;59840;52.122;5.404;2023-12-20T06:33:27;101588.47;;;7.05;100.00
71974;BME280;59840;52.122;5.404;2023-12-20T06:35:54;101580.81;;;7.10;100.00
71974;BME280;59840;52.122;5.404;2023-12-20T06:38:20;101576.97;;;7.13;100.00
71974;BME280;59840;52.122;5.404;2023-12-20T06:40:47;101578.78;;;7.12;100.00
71974;BME280;59840;52.122;5.404;2023-12-20T06:43:14;101569.91;;;7.13;100.00
71974;BME280;59840;52.122;5.404;2023-12-20T06:46:00;101569.72;;;7.15;100.00
71974;BME280;59840;52.122;5.404;2023-12-20T06:48:27;101568.91;;;7.14;100.00
71974;BME280;59840;52.122;5.404;2023-12-20T06:50:53;101567.91;;;7.15;100.00
71974;BME280;59840;52.122;5.404;2023-12-20T06:53:20;101562.66;;;7.15;100.00
71974;BME280;59840;52.122;5.404;2023-12-20T06:55:46;101554.78;;;7.15;100.00
71974;BME280;59840;52.122;5.404;2023-12-20T06:58:13;101557.19;;;7.17;100.00
71974;BME280;59840;52.122;5.404;2023-12-20T07:00:40;101557.81;;;7.19;100.00
71974;BME280;59840;52.122;5.404;2023-12-20T07:03:06;101557.81;;;7.19;100.00
71974;BME280;59840;52.122;5.404;2023-12-20T07:05:33;101560.44;;;7.19;100.00
71974;BME280;59840;52.122;5.404;2023-12-20T07:08:00;101558.59;;;7.19;100.00
71974;BME280;59840;52.122;5.404;2023-12-20T07:10:26;101561.22;;;7.19;100.00
71974;BME280;59840;52.122;5.404;2023-12-20T07:12:53;101556.59;;;7.21;100.00
71974;BME280;59840;52.122;5.404;2023-12-20T07:15:22;101566.69;;;7.24;100.00
71974;BME280;59840;52.122;5.404;2023-12-20T07:17:48;101557.78;;;7.25;100.00
71974;BME280;59840;52.122;5.404;2023-12-20T07:20:16;101564.88;;;7.25;100.00
71974;BME280;59840;52.122;5.404;2023-12-20T07:22:43;101555.97;;;7.26;100.00
71974;BME280;59840;52.122;5.404;2023-12-20T07:25:09;101555.16;;;7.25;100.00
71974;BME280;59840;52.122;5.404;2023-12-20T07:27:37;101548.09;;;7.26;100.00
71974;BME280;59840;52.122;5.404;2023-12-20T07:30:04;101547.09;;;7.27;100.00
71974;BME280;59840;52.122;5.404;2023-12-20T07:32:30;101557.34;;;7.28;100.00
71974;BME280;59840;52.122;5.404;2023-12-20T07:34:58;101557.34;;;7.35;100.00
71974;BME280;59840;52.122;5.404;2023-12-20T07:37:25;101548.25;;;7.37;100.00
71974;BME280;59840;52.122;5.404;2023-12-20T07:39:52;101538.16;;;7.34;100.00
71974;BME280;59840;52.122;5.404;2023-12-20T07:42:18;101535.53;;;7.34;100.00
71974;BME280;59840;52.122;5.404;2023-12-20T07:44:45;101548.66;;;7.34;100.00
71974;BME280;59840;52.122;5.404;2023-12-20T07:47:11;101546.03;;;7.34;100.00
71974;BME280;59840;52.122;5.404;2023-12-20T07:49:41;101561.38;;;7.37;100.00
71974;BME280;59840;52.122;5.404;2023-12-20T07:52:08;101561.38;;;7.37;100.00
71974;BME280;59840;52.122;5.404;2023-12-20T07:54:35;101565.63;;;7.38;100.00
71974;BME280;59840;52.122;5.404;2023-12-20T07:57:02;101564.81;;;7.38;100.00
71974;BME280;59840;52.122;5.404;2023-12-20T07:59:28;101572.50;;;7.39;100.00
71974;BME280;59840;52.122;5.404;2023-12-20T08:01:58;101580.16;;;7.41;100.00
71974;BME280;59840;52.122;5.404;2023-12-20T08:04:26;101569.66;;;7.41;100.00
71974;BME280;59840;52.122;5.404;2023-12-20T08:06:53;101579.16;;;7.42;100.00
71974;BME280;59840;52.122;5.404;2023-12-20T08:09:19;101584.00;;;7.45;100.00
71974;BME280;59840;52.122;5.404;2023-12-20T08:11:49;101584.00;;;7.45;100.00
71974;BME280;59840;52.122;5.404;2023-12-20T08:14:15;101588.03;;;7.48;100.00
71974;BME280;59840;52.122;5.404;2023-12-20T08:16:42;101581.56;;;7.50;100.00
71974;BME280;59840;52.122;5.404;2023-12-20T08:19:09;101583.38;;;7.50;100.00
71974;BME280;59840;52.122;5.404;2023-12-20T08:21:35;101578.75;;;7.52;100.00
71974;BME280;59840;52.122;5.404;2023-12-20T08:24:04;101578.53;;;7.53;100.00
71974;BME280;59840;52.122;5.404;2023-12-20T08:26:33;101574.69;;;7.56;100.00
71974;BME280;59840;52.122;5.404;2023-12-20T08:28:59;101573.88;;;7.55;100.00
71974;BME280;59840;52.122;5.404;2023-12-20T08:31:28;101568.44;;;7.57;100.00
71974;BME280;59840;52.122;5.404;2023-12-20T08:33:55;101575.28;;;7.58;100.00
71974;BME280;59840;52.122;5.404;2023-12-20T08:36:22;101565.41;;;7.60;100.00
71974;BME280;59840;52.122;5.404;2023-12-20T08:38:50;101558.31;;;7.60;100.00
71974;BME280;59840;52.122;5.404;2023-12-20T08:41:17;101558.31;;;7.60;100.00
71974;BME280;59840;52.122;5.404;2023-12-20T08:43:44;101561.53;;;7.62;100.00
71974;BME280;59840;52.122;5.404;2023-12-20T08:46:10;101562.94;;;7.65;100.00
71974;BME280;59840;52.122;5.404;2023-12-20T08:48:38;101572.63;;;7.64;100.00
71974;BME280;59840;52.122;5.404;2023-12-20T08:51:05;101562.13;;;7.64;100.00
71974;BME280;59840;52.122;5.404;2023-12-20T08:53:36;101566.56;;;7.64;100.00
71974;BME280;59840;52.122;5.404;2023-12-20T08:56:02;101559.69;;;7.63;100.00
71974;BME280;59840;52.122;5.404;2023-12-20T08:58:29;101563.13;;;7.63;100.00
71974;BME280;59840;52.122;5.404;2023-12-20T09:00:56;101563.38;;;7.62;100.00
71974;BME280;59840;52.122;5.404;2023-12-20T09:03:24;101565.41;;;7.60;100.00
71974;BME280;59840;52.122;5.404;2023-12-20T09:05:51;101564.59;;;7.59;100.00
71974;BME280;59840;52.122;5.404;2023-12-20T09:08:17;101564.78;;;7.58;100.00
71974;BME280;59840;52.122;5.404;2023-12-20T09:10:44;101558.72;;;7.57;100.00
71974;BME280;59840;52.122;5.404;2023-12-20T09:13:11;101571.06;;;7.57;100.00
71974;BME280;59840;52.122;5.404;2023-12-20T09:15:38;101559.94;;;7.55;100.00
71974;BME280;59840;52.122;5.404;2023-12-20T09:18:04;101559.34;;;7.53;100.00
71974;BME280;59840;52.122;5.404;2023-12-20T09:20:32;101550.47;;;7.54;100.00
71974;BME280;59840;52.122;5.404;2023-12-20T09:22:59;101555.28;;;7.57;100.00
71974;BME280;59840;52.122;5.404;2023-12-20T09:25:26;101545.59;;;7.57;100.00
71974;BME280;59840;52.122;5.404;2023-12-20T09:27:53;101553.88;;;7.61;100.00
71974;BME280;59840;52.122;5.404;2023-12-20T09:30:20;101561.31;;;7.64;100.00
71974;BME280;59840;52.122;5.404;2023-12-20T09:32:56;101559.28;;;7.66;100.00
71974;BME280;59840;52.122;5.404;2023-12-20T09:35:23;101558.88;;;7.69;100.00
71974;BME280;59840;52.122;5.404;2023-12-20T09:37:50;101561.69;;;7.74;100.00
71974;BME280;59840;52.122;5.404;2023-12-20T09:40:20;101556.03;;;7.77;100.00
71974;BME280;59840;52.122;5.404;2023-12-20T09:42:57;101560.25;;;7.85;100.00
71974;BME280;59840;52.122;5.404;2023-12-20T09:45:24;101558.81;;;7.89;100.00
71974;BME280;59840;52.122;5.404;2023-12-20T09:47:54;101568.88;;;7.98;100.00
71974;BME280;59840;52.122;5.404;2023-12-20T09:50:22;101572.28;;;8.05;100.00
71974;BME280;59840;52.122;5.404;2023-12-20T09:52:51;101566.19;;;8.12;100.00
71974;BME280;59840;52.122;5.404;2023-12-20T09:55:19;101573.66;;;8.15;100.00
71974;BME280;59840;52.122;5.404;2023-12-20T09:57:47;101574.47;;;8.15;100.00
71974;BME280;59840;52.122;5.404;2023-12-20T10:00:15;101560.69;;;8.20;100.00
71974;BME280;59840;52.122;5.404;2023-12-20T10:02:59;101555.81;;;8.23;100.00
71974;BME280;59840;52.122;5.404;2023-12-20T10:05:31;101560.66;;;8.26;100.00
71974;BME280;59840;52.122;5.404;2023-12-20T10:08:00;101569.31;;;8.33;100.00
71974;BME280;59840;52.122;5.404;2023-12-20T10:10:27;101575.56;;;8.39;100.00
71974;BME280;59840;52.122;5.404;2023-12-20T10:13:10;101583.03;;;8.42;100.00
71974;BME280;59840;52.122;5.404;2023-12-20T10:15:37;101578.78;;;8.41;100.00
71974;BME280;59840;52.122;5.404;2023-12-20T10:18:05;101580.41;;;8.42;100.00
71974;BME280;59840;52.122;5.404;2023-12-20T10:20:32;101577.56;;;8.44;100.00
71974;BME280;59840;52.122;5.404;2023-12-20T10:23:00;101587.28;;;8.43;100.00
71974;BME280;59840;52.122;5.404;2023-12-20T10:25:28;101588.47;;;8.47;100.00
71974;BME280;59840;52.122;5.404;2023-12-20T10:28:15;101583.22;;;8.47;100.00
71974;BME280;59840;52.122;5.404;2023-12-20T10:30:45;101569.84;;;8.49;100.00
71974;BME280;59840;52.122;5.404;2023-12-20T10:33:12;101569.03;;;8.48;100.00
71974;BME280;59840;52.122;5.404;2023-12-20T10:35:39;101563.38;;;8.51;100.00
71974;BME280;59840;52.122;5.404;2023-12-20T10:38:12;101553.00;;;8.56;100.00
71974;BME280;59840;52.122;5.404;2023-12-20T10:40:40;101558.44;;;8.61;100.00
71974;BME280;59840;52.122;5.404;2023-12-20T10:43:08;101554.19;;;8.60;100.00
71974;BME280;59840;52.122;5.404;2023-12-20T10:45:35;101548.34;;;8.58;100.00
71974;BME280;59840;52.122;5.404;2023-12-20T10:48:02;101550.56;;;8.61;100.00
71974;BME280;59840;52.122;5.404;2023-12-20T10:50:31;101542.81;;;8.66;100.00
71974;BME280;59840;52.122;5.404;2023-12-20T10:52:58;101551.50;;;8.67;100.00
71974;BME280;59840;52.122;5.404;2023-12-20T10:55:26;101542.38;;;8.69;100.00
71974;BME280;59840;52.122;5.404;2023-12-20T10:58:07;101533.47;;;8.70;100.00
71974;BME280;59840;52.122;5.404;2023-12-20T11:00:39;101535.28;;;8.70;100.00
71974;BME280;59840;52.122;5.404;2023-12-20T11:03:11;101534.28;;;8.71;100.00
71974;BME280;59840;52.122;5.404;2023-12-20T11:05:59;101535.84;;;8.79;100.00
71974;BME280;59840;52.122;5.404;2023-12-20T11:08:33;101531.75;;;8.83;100.00
71974;BME280;59840;52.122;5.404;2023-12-20T11:11:29;101530.53;;;8.85;100.00
71974;BME280;59840;52.122;5.404;2023-12-20T11:16:31;101514.84;;;8.97;100.00
71974;BME280;59840;52.122;5.404;2023-12-20T11:19:13;101525.97;;;8.99;100.00
71974;BME280;59840;52.122;5.404;2023-12-20T11:21:41;101526.53;;;9.01;100.00
71974;BME280;59840;52.122;5.404;2023-12-20T11:24:09;101520.00;;;9.03;100.00
71974;BME280;59840;52.122;5.404;2023-12-20T11:26:36;101511.53;;;9.01;100.00
71974;BME280;59840;52.122;5.404;2023-12-20T11:29:36;101501.47;;;8.98;100.00
71974;BME280;59840;52.122;5.404;2023-12-20T11:35:39;101514.84;;;9.15;100.00
71974;BME280;59840;52.122;5.404;2023-12-20T11:37:41;101505.22;;;9.27;100.00
71974;BME280;59840;52.122;5.404;2023-12-20T11:40:17;101507.78;;;9.34;100.00
71974;BME280;59840;52.122;5.404;2023-12-20T11:42:45;101508.72;;;9.39;100.00
71974;BME280;59840;52.122;5.404;2023-12-20T11:45:19;101497.03;;;9.35;100.00
71974;BME280;59840;52.122;5.404;2023-12-20T11:47:49;101491.19;;;9.33;100.00
71974;BME280;59840;52.122;5.404;2023-12-20T11:50:17;101490.59;;;9.31;100.00
71974;BME280;59840;52.122;5.404;2023-12-20T11:52:45;101490.59;;;9.31;100.00
71974;BME280;59840;52.122;5.404;2023-12-20T11:55:11;101496.28;;;9.28;100.00
71974;BME280;59840;52.122;5.404;2023-12-20T11:57:39;101478.88;;;9.27;100.00
71974;BME280;59840;52.122;5.404;2023-12-20T12:00:07;101474.63;;;9.26;100.00
71974;BME280;59840;52.122;5.404;2023-12-20T12:02:55;101484.94;;;9.28;100.00
71974;BME280;59840;52.122;5.404;2023-12-20T12:05:30;101480.50;;;9.28;100.00
71974;BME280;59840;52.122;5.404;2023-12-20T12:11:48;101488.59;;;9.27;100.00
71974;BME280;59840;52.122;5.404;2023-12-20T12:14:32;101476.47;;;9.26;100.00
71974;BME280;59840;52.122;5.404;2023-12-20T12:16:59;101483.56;;;9.25;100.00
71974;BME280;59840;52.122;5.404;2023-12-20T12:19:26;101490.66;;;9.25;100.00
71974;BME280;59840;52.122;5.404;2023-12-20T12:22:13;101488.25;;;9.23;100.00
71974;BME280;59840;52.122;5.404;2023-12-20T12:24:42;101473.25;;;9.24;100.00
71974;BME280;59840;52.122;5.404;2023-12-20T12:27:10;101486.41;;;9.24;100.00
71974;BME280;59840;52.122;5.404;2023-12-20T12:29:37;101467.91;;;9.30;100.00
71974;BME280;59840;52.122;5.404;2023-12-20T12:32:06;101470.75;;;9.29;100.00
71974;BME280;59840;52.122;5.404;2023-12-20T12:34:34;101461.84;;;9.30;100.00
71974;BME280;59840;52.122;5.404;2023-12-20T12:37:03;101461.84;;;9.30;100.00
71974;BME280;59840;52.122;5.404;2023-12-20T12:39:30;101454.16;;;9.28;100.00
71974;BME280;59840;52.122;5.404;2023-12-20T12:41:57;101452.53;;;9.27;100.00
71974;BME280;59840;52.122;5.404;2023-12-20T12:44:24;101452.31;;;9.29;100.00
71974;BME280;59840;52.122;5.404;2023-12-20T12:46:52;101444.66;;;9.27;100.00
71974;BME280;59840;52.122;5.404;2023-12-20T13:03:28;101436.97;;;9.26;100.00
71974;BME280;59840;52.122;5.404;2023-12-20T13:05:56;101429.59;;;9.34;100.00
71974;BME280;59840;52.122;5.404;2023-12-20T13:08:23;101433.94;;;9.40;100.00
71974;BME280;59840;52.122;5.404;2023-12-20T13:10:50;101424.56;;;9.45;100.00
71974;BME280;59840;52.122;5.404;2023-12-20T13:13:16;101417.44;;;9.33;100.00
71974;BME280;59840;52.122;5.404;2023-12-20T13:15:43;101420.94;;;9.27;100.00
71974;BME280;59840;52.122;5.404;2023-12-20T13:18:17;101413.28;;;9.26;100.00